| Date | Time | Temp. (oF) | Dew Point (oF) | Rel. Hum. (%) | Press. (in.) | Wind Dir. | Wind Speed (mph) | Hourly Rainfall (in.) |
|
|---|---|---|---|---|---|---|---|---|---|
| 1 | 10/02 | 00:00 | 46 | 45 | 97 | 30.32 | SSE | 1 | 0.00 |
| 2 | 10/01 | 23:00 | 48 | 46 | 94 | 30.31 | SSE | 0 | 0.00 |
| 3 | 10/01 | 22:00 | 49 | 46 | 91 | 30.31 | SSE | 1 | 0.00 |
| 4 | 10/01 | 21:00 | 51 | 46 | 83 | 30.30 | SW | 0 | 0.00 |
| 5 | 10/01 | 20:00 | 55 | 45 | 71 | 30.29 | SW | 1 | 0.00 |
| 6 | 10/01 | 19:00 | 60 | 43 | 54 | 30.27 | SW | 0 | 0.00 |
| 7 | 10/01 | 18:00 | 65 | 41 | 43 | 30.27 | W | 3 | 0.00 |
| 8 | 10/01 | 17:00 | 69 | 45 | 43 | 30.26 | NNE | 2 | 0.00 |
| 9 | 10/01 | 16:00 | 69 | 43 | 40 | 30.27 | SSW | 4 | 0.00 |
| 10 | 10/01 | 15:00 | 69 | 44 | 41 | 30.30 | SSE | 4 | 0.00 |
| 11 | 10/01 | 14:00 | 68 | 45 | 45 | 30.34 | S | 5 | 0.00 |
| 12 | 10/01 | 13:00 | 65 | 44 | 47 | 30.36 | ENE | 1 | 0.00 |
| 13 | 10/01 | 12:00 | 63 | 46 | 55 | 30.38 | ENE | 4 | 0.00 |
| 14 | 10/01 | 11:00 | 60 | 44 | 57 | 30.40 | NE | 5 | 0.00 |
| 15 | 10/01 | 10:00 | 55 | 45 | 70 | 30.40 | NE | 6 | 0.00 |
| 16 | 10/01 | 09:00 | 47 | 42 | 83 | 30.40 | NE | 4 | 0.00 |
| 17 | 10/01 | 08:00 | 40 | 40 | 100 | 30.39 | NW | 0 | 0.00 |
| 18 | 10/01 | 07:00 | 39 | 39 | 100 | 30.38 | NW | 0 | 0.00 |
| 19 | 10/01 | 06:00 | 40 | 39 | 99 | 30.37 | NW | 1 | 0.00 |
| 20 | 10/01 | 05:00 | 40 | 39 | 97 | 30.37 | NW | 2 | 0.00 |
| 21 | 10/01 | 04:00 | 42 | 40 | 94 | 30.37 | NW | 1 | 0.00 |
| 22 | 10/01 | 03:00 | 42 | 40 | 93 | 30.35 | NW | 2 | 0.00 |
| 23 | 10/01 | 02:00 | 44 | 40 | 88 | 30.36 | NW | 2 | 0.00 |
| 24 | 10/01 | 01:00 | 46 | 40 | 80 | 30.36 | N | 1 | 0.00 |